createdAt,value
2023-03-22T00:00:19.127Z,99851.43
2023-03-22T00:02:47.415Z,99853.68
2023-03-22T00:05:15.721Z,99850.88
2023-03-22T00:08:07.219Z,99849.17
2023-03-22T00:10:37.277Z,99847.26
2023-03-22T00:13:06.711Z,99844.17
2023-03-22T00:15:35.153Z,99843.55
2023-03-22T00:18:05.992Z,99840.09
2023-03-22T00:20:38.635Z,99845.58
2023-03-22T00:23:09.262Z,99845.26
2023-03-22T00:25:38.002Z,99849.26
2023-03-22T00:28:06.385Z,99850.78
2023-03-22T00:30:34.569Z,99852.90
2023-03-22T00:33:02.941Z,99850.05
2023-03-22T00:35:31.864Z,99856.64
2023-03-22T00:38:06.237Z,99855.07
2023-03-22T00:40:35.466Z,99851.51
2023-03-22T00:43:03.953Z,99850.36
2023-03-22T00:45:32.291Z,99847.96
2023-03-22T00:48:01.397Z,99849.44
2023-03-22T00:50:30.369Z,99848.02
2023-03-22T00:52:58.919Z,99848.05
2023-03-22T00:55:28.510Z,99848.45
2023-03-22T00:57:57.320Z,99845.73
2023-03-22T01:00:25.745Z,99844.44
2023-03-22T01:02:59.870Z,99843.84
2023-03-22T01:05:28.581Z,99844.43
2023-03-22T01:07:57.024Z,99844.58
2023-03-22T01:10:30.528Z,99847.09
2023-03-22T01:12:59.187Z,99848.29
2023-03-22T01:15:30.768Z,99846.42
2023-03-22T01:17:59.217Z,99844.91
2023-03-22T01:20:28.218Z,99848.52
2023-03-22T01:22:56.500Z,99857.43
2023-03-22T01:25:24.781Z,99860.34
2023-03-22T01:27:54.018Z,99859.89
2023-03-22T01:30:22.370Z,99860.84
2023-03-22T01:32:51.668Z,99859.27
2023-03-22T01:35:20.054Z,99855.30
2023-03-22T01:37:48.248Z,99856.60
2023-03-22T01:40:17.535Z,99857.66
2023-03-22T01:42:46.126Z,99854.91
2023-03-22T01:45:30.476Z,99858.09
2023-03-22T01:48:01.942Z,99861.46
2023-03-22T01:50:32.663Z,99863.73
2023-03-22T01:53:01.252Z,99862.61
2023-03-22T01:55:34.254Z,99864.71
2023-03-22T01:58:18.227Z,99862.35
2023-03-22T02:00:53.419Z,99862.70
2023-03-22T02:03:38.584Z,99860.42
2023-03-22T02:06:08.028Z,99863.12
2023-03-22T02:08:36.275Z,99860.42
2023-03-22T02:11:14.851Z,99861.77
2023-03-22T02:13:52.163Z,99862.19
2023-03-22T02:17:16.122Z,99856.52
2023-03-22T02:20:10.939Z,99855.38
2023-03-22T02:23:13.856Z,99851.79
2023-03-22T02:26:03.756Z,99856.07
2023-03-22T02:28:51.199Z,99855.02
2023-03-22T02:31:47.275Z,99855.27
2023-03-22T02:34:23.961Z,99856.48
2023-03-22T02:37:03.497Z,99860.50
2023-03-22T02:39:41.295Z,99861.66
2023-03-22T02:42:53.171Z,99863.89
2023-03-22T02:45:36.735Z,99866.67
2023-03-22T02:48:12.748Z,99869.64
2023-03-22T02:50:48.199Z,99870.80
2023-03-22T02:53:19.656Z,99870.85
2023-03-22T02:56:26.750Z,99867.11
2023-03-22T02:58:56.652Z,99869.47
2023-03-22T03:01:29.360Z,99870.02
2023-03-22T03:04:01.146Z,99873.15
2023-03-22T03:06:31.248Z,99877.20
2023-03-22T03:09:02.964Z,99876.31
2023-03-22T03:11:32.393Z,99877.79
2023-03-22T03:14:01.055Z,99874.02
2023-03-22T03:16:30.898Z,99878.75
2023-03-22T03:19:03.769Z,99880.03
2023-03-22T03:21:42.679Z,99887.00
2023-03-22T03:24:14.055Z,99890.76
2023-03-22T03:26:57.053Z,99894.91
2023-03-22T03:29:41.072Z,99891.87
2023-03-22T03:32:38.547Z,99892.23
2023-03-22T03:35:23.169Z,99900.88
2023-03-22T03:37:54.034Z,99904.73
2023-03-22T03:40:47.038Z,99903.98
2023-03-22T03:43:16.791Z,99906.25
2023-03-22T03:45:47.559Z,99908.02
2023-03-22T03:48:19.353Z,99907.18
2023-03-22T03:50:50.482Z,99910.35
2023-03-22T03:53:19.548Z,99914.07
2023-03-22T03:55:47.722Z,99912.69
2023-03-22T03:58:16.941Z,99912.64
2023-03-22T04:00:46.490Z,99915.83
2023-03-22T04:03:50.846Z,99914.29
2023-03-22T04:06:40.293Z,99917.92
2023-03-22T04:09:12.111Z,99922.91
2023-03-22T04:11:44.405Z,99927.57
2023-03-22T04:14:14.154Z,99927.21
2023-03-22T04:16:42.675Z,99928.59
2023-03-22T04:19:14.395Z,99925.19
2023-03-22T04:21:43.694Z,99929.31
2023-03-22T04:24:12.900Z,99929.59
2023-03-22T04:26:43.122Z,99930.64
2023-03-22T04:29:23.169Z,99934.30
2023-03-22T04:31:57.384Z,99930.80
2023-03-22T04:34:31.709Z,99931.14
2023-03-22T04:37:08.239Z,99927.50
2023-03-22T04:39:49.870Z,99933.05
2023-03-22T04:42:34.673Z,99934.48
2023-03-22T04:45:16.814Z,99933.52
2023-03-22T04:47:47.917Z,99935.61
2023-03-22T04:50:17.171Z,99933.39
2023-03-22T04:52:50.522Z,99932.65
2023-03-22T04:55:21.312Z,99940.35
2023-03-22T04:57:51.293Z,99940.13
2023-03-22T05:00:21.892Z,99944.63
2023-03-22T05:02:52.277Z,99947.17
2023-03-22T05:05:51.012Z,99943.95
2023-03-22T05:08:21.387Z,99946.16
2023-03-22T05:10:52.365Z,99949.24
2023-03-22T05:13:21.733Z,99949.20
2023-03-22T05:15:52.049Z,99952.17
2023-03-22T05:18:27.853Z,99958.02
2023-03-22T05:20:57.829Z,99957.16
2023-03-22T05:23:28.468Z,99950.91
2023-03-22T05:25:58.434Z,99953.23
2023-03-22T05:28:32.044Z,99955.78
2023-03-22T05:31:18.159Z,99958.64
2023-03-22T05:34:04.271Z,99960.61
2023-03-22T05:36:36.606Z,99959.16
2023-03-22T05:39:18.122Z,99959.32
2023-03-22T05:41:47.324Z,99959.67
2023-03-22T05:44:15.964Z,99965.89
2023-03-22T05:46:53.825Z,99973.20
2023-03-22T05:49:49.304Z,99975.42
2023-03-22T05:52:22.745Z,99978.22
2023-03-22T05:55:06.919Z,99983.46
2023-03-22T05:57:35.605Z,99981.80
2023-03-22T06:00:13.365Z,99984.91
2023-03-22T06:02:44.441Z,99985.09
2023-03-22T06:05:16.871Z,99986.65
2023-03-22T06:07:45.355Z,99992.03
2023-03-22T06:10:18.443Z,99990.48
2023-03-22T06:12:55.125Z,99985.96
2023-03-22T06:15:28.144Z,99990.87
2023-03-22T06:18:08.611Z,99990.80
2023-03-22T06:20:40.902Z,99994.99
2023-03-22T06:23:18.210Z,99999.30
2023-03-22T06:25:47.423Z,100001.84
2023-03-22T06:28:17.002Z,100000.52
2023-03-22T06:30:51.223Z,100007.40
2023-03-22T06:33:37.564Z,100005.39
2023-03-22T06:36:23.630Z,100002.79
2023-03-22T06:39:05.480Z,100004.77
2023-03-22T06:41:34.602Z,100005.39
2023-03-22T06:44:03.145Z,100007.83
2023-03-22T06:46:49.910Z,100007.71
2023-03-22T06:49:38.240Z,100007.98
2023-03-22T06:52:06.722Z,100006.28
2023-03-22T06:54:36.850Z,100008.65
2023-03-22T06:57:05.432Z,100008.50
2023-03-22T06:59:35.055Z,100007.35
2023-03-22T07:02:03.945Z,100005.22
2023-03-22T07:04:33.336Z,100008.42
2023-03-22T07:07:02.349Z,100017.23
2023-03-22T07:09:31.959Z,100018.72
2023-03-22T07:12:01.677Z,100018.35
2023-03-22T07:14:31.097Z,100020.39
2023-03-22T07:17:27.616Z,100023.64
2023-03-22T07:19:57.320Z,100021.79
2023-03-22T07:22:25.911Z,100024.32
2023-03-22T07:25:01.964Z,100022.94
2023-03-22T07:27:51.764Z,100022.33
2023-03-22T07:30:22.749Z,100021.17
2023-03-22T07:32:51.313Z,100019.17
2023-03-22T07:35:19.661Z,100024.85
2023-03-22T07:37:49.103Z,100026.91
2023-03-22T07:40:26.154Z,100023.17
2023-03-22T07:42:56.041Z,100024.95
2023-03-22T07:45:43.989Z,100027.98
2023-03-22T07:48:54.033Z,100033.17
2023-03-22T07:51:42.365Z,100031.43
2023-03-22T07:54:14.029Z,100032.16
2023-03-22T07:56:48.238Z,100034.85
2023-03-22T07:59:18.024Z,100037.25
2023-03-22T08:01:46.493Z,100037.88
2023-03-22T08:04:32.120Z,100038.76
2023-03-22T08:07:05.922Z,100043.37
2023-03-22T08:09:37.830Z,100040.10
2023-03-22T08:12:07.499Z,100041.42
2023-03-22T08:20:20.160Z,100033.92
2023-03-22T08:22:55.493Z,100034.05
2023-03-22T08:25:44.013Z,100035.14
2023-03-22T08:28:13.417Z,100036.30
2023-03-22T08:30:43.136Z,100033.98
2023-03-22T08:33:11.370Z,100030.01
2023-03-22T08:35:40.141Z,100030.55
2023-03-22T08:38:09.321Z,100033.03
2023-03-22T08:40:46.217Z,100036.26
2023-03-22T08:43:16.214Z,100036.50
2023-03-22T08:45:47.810Z,100032.98
2023-03-22T08:48:19.039Z,100033.45
2023-03-22T08:51:07.649Z,100032.00
2023-03-22T08:53:50.361Z,100030.28
2023-03-22T08:56:44.841Z,100030.60
2023-03-22T08:59:34.728Z,100030.52
2023-03-22T09:02:27.621Z,100031.38
2023-03-22T09:04:56.854Z,100028.98
2023-03-22T09:07:26.060Z,100028.14
2023-03-22T09:10:07.758Z,100028.92
2023-03-22T09:12:38.694Z,100031.27
2023-03-22T09:15:07.826Z,100034.39
2023-03-22T09:17:38.032Z,100029.77
2023-03-22T09:20:15.155Z,100030.35
2023-03-22T09:22:44.862Z,100032.58
2023-03-22T09:25:14.648Z,100030.77
2023-03-22T09:27:46.003Z,100030.09
2023-03-22T09:30:14.285Z,100030.50
2023-03-22T09:32:42.616Z,100031.60
2023-03-22T09:35:12.058Z,100034.96
2023-03-22T09:37:49.678Z,100029.63
2023-03-22T09:40:18.099Z,100029.84
2023-03-22T09:42:48.496Z,100027.54
2023-03-22T09:45:21.084Z,100028.01
2023-03-22T09:47:51.698Z,100032.20
2023-03-22T09:50:22.328Z,100024.45
2023-03-22T09:52:53.395Z,100025.61
2023-03-22T09:55:22.662Z,100022.91
2023-03-22T09:58:32.634Z,100018.04
2023-03-22T10:01:05.490Z,100017.71
2023-03-22T10:04:12.786Z,100021.84
2023-03-22T10:06:43.443Z,100021.98
2023-03-22T10:09:45.164Z,100020.82
2023-03-22T10:12:18.915Z,100018.32
2023-03-22T10:14:59.054Z,100018.07
2023-03-22T10:17:28.273Z,100013.41
2023-03-22T10:20:08.744Z,100013.54
2023-03-22T10:22:42.154Z,100008.52
2023-03-22T10:25:17.901Z,100010.68
2023-03-22T10:27:47.287Z,100009.88
2023-03-22T10:30:23.552Z,100010.97
2023-03-22T10:32:57.814Z,100009.59
2023-03-22T10:35:26.601Z,100005.56
2023-03-22T10:37:56.171Z,100000.14
2023-03-22T10:40:28.910Z,100002.55
2023-03-22T10:43:00.907Z,99999.75
2023-03-22T10:45:29.316Z,99999.70
2023-03-22T10:48:00.309Z,99996.48
2023-03-22T10:50:32.154Z,99995.98
2023-03-22T10:53:30.484Z,99991.56
2023-03-22T10:55:58.761Z,99991.02
2023-03-22T10:58:34.339Z,99990.23
2023-03-22T11:01:11.153Z,99988.45
2023-03-22T11:03:41.886Z,99987.48
2023-03-22T11:06:14.287Z,99986.08
2023-03-22T11:08:45.212Z,99983.52
2023-03-22T11:11:29.692Z,99980.54
2023-03-22T11:14:17.520Z,99976.59
2023-03-22T11:17:02.275Z,99973.43
2023-03-22T11:19:36.749Z,99970.67
2023-03-22T11:22:06.834Z,99970.04
2023-03-22T11:24:35.408Z,99969.73
2023-03-22T11:27:25.430Z,99970.81
2023-03-22T11:29:58.587Z,99967.27
2023-03-22T11:32:33.229Z,99963.96
2023-03-22T11:35:13.973Z,99968.36
2023-03-22T11:37:42.608Z,99964.35
2023-03-22T11:40:15.795Z,99964.55
2023-03-22T11:42:44.254Z,99967.40
2023-03-22T11:45:23.969Z,99961.21
2023-03-22T11:47:52.419Z,99959.39
2023-03-22T11:50:29.292Z,99955.70
2023-03-22T11:52:58.654Z,99954.38
2023-03-22T11:55:27.162Z,99956.67
2023-03-22T11:58:04.068Z,99951.61
2023-03-22T12:00:37.795Z,99950.40
2023-03-22T12:03:10.787Z,99949.03
2023-03-22T12:40:52.591Z,99940.64
2023-03-22T12:43:33.685Z,99945.54
2023-03-22T12:46:09.322Z,99947.45
2023-03-22T12:48:41.538Z,99949.45
2023-03-22T12:51:12.338Z,99948.44
2023-03-22T12:53:43.993Z,99948.13
2023-03-22T12:56:14.205Z,99949.77
2023-03-22T12:58:45.298Z,99949.36
2023-03-22T13:01:31.793Z,99949.04
2023-03-22T13:04:00.240Z,99945.52
2023-03-22T13:06:35.063Z,99945.75
2023-03-22T13:09:09.487Z,99944.36
2023-03-22T13:11:42.707Z,99945.92
2023-03-22T13:14:34.508Z,99944.30
2023-03-22T13:17:03.991Z,99944.92
2023-03-22T13:19:38.427Z,99947.20
2023-03-22T13:22:19.090Z,99944.92
2023-03-22T13:25:01.157Z,99945.12
2023-03-22T13:27:38.153Z,99944.52
2023-03-22T13:30:22.004Z,99945.55
2023-03-22T13:32:57.351Z,99946.89
2023-03-22T13:35:45.591Z,99946.59
2023-03-22T13:38:24.589Z,99949.89
2023-03-22T13:41:14.149Z,99953.19
2023-03-22T13:43:47.241Z,99952.52
2023-03-22T13:46:20.041Z,99950.23
2023-03-22T13:49:00.736Z,99951.37
2023-03-22T13:51:32.791Z,99949.77
2023-03-22T13:54:19.313Z,99944.27
2023-03-22T13:56:58.723Z,99941.96
2023-03-22T13:59:30.070Z,99939.77
2023-03-22T14:02:26.434Z,99937.17
2023-03-22T14:04:59.012Z,99939.79
2023-03-22T14:07:35.747Z,99938.05
2023-03-22T14:10:17.073Z,99935.66
2023-03-22T14:12:48.787Z,99932.45
2023-03-22T14:15:29.038Z,99931.73
2023-03-22T14:18:03.515Z,99935.23
2023-03-22T14:20:35.760Z,99935.16
